JBU1516 KSRQ-MYNN
Flight info
| Callsign | JBU1516 |
|---|---|
| Flight time | N/A |
| Altitude | 33000 |
| Route | SABEE DCT FLL337015 DCT SAXXN DCT ELQUE DCT RAJAY |
| Aircraft | A320/M-SDE3FGHIRWY/LB1 |
Departure
| Time | 2026-05-08 15:30 |
|---|---|
| Airport | Sarasota Bradenton International Airport (KSRQ) |
Arrival
| Time | N/A |
|---|---|
| Airport | Lynden Pindling International Airport (MYNN) |
| Time | Latitude | Longitude | Altitude | Speed | Heading |
|---|---|---|---|---|---|
| 2026-05-08 15:13 | 27.38925 | -82.55314 | 31 ft | 0 kts | 278° |
| 2026-05-08 15:23 | 27.38924 | -82.55306 | 31 ft | 2 kts | 276° |
| 2026-05-08 15:23 | 27.38922 | -82.55288 | 31 ft | 2 kts | 279° |
| 2026-05-08 15:24 | 27.38920 | -82.55269 | 31 ft | 2 kts | 277° |
| 2026-05-08 15:24 | 27.38918 | -82.55251 | 31 ft | 2 kts | 276° |
| 2026-05-08 15:24 | 27.38917 | -82.55232 | 31 ft | 2 kts | 276° |
| 2026-05-08 15:24 | 27.38915 | -82.55214 | 31 ft | 2 kts | 295° |
| 2026-05-08 15:25 | 27.38913 | -82.55207 | 31 ft | 0 kts | 325° |
| 2026-05-08 15:26 | 27.38935 | -82.55202 | 31 ft | 7 kts | 42° |
| 2026-05-08 15:27 | 27.38965 | -82.55153 | 31 ft | 8 kts | 57° |
| 2026-05-08 15:27 | 27.38993 | -82.55085 | 31 ft | 12 kts | 86° |
| 2026-05-08 15:27 | 27.38942 | -82.54998 | 30 ft | 14 kts | 133° |
| 2026-05-08 15:27 | 27.38867 | -82.54914 | 31 ft | 16 kts | 135° |
| 2026-05-08 15:28 | 27.38785 | -82.54821 | 31 ft | 18 kts | 135° |
| 2026-05-08 15:28 | 27.38674 | -82.54693 | 31 ft | 24 kts | 134° |
| 2026-05-08 15:28 | 27.38592 | -82.54599 | 31 ft | 11 kts | 130° |
| 2026-05-08 15:28 | 27.38602 | -82.54521 | 30 ft | 12 kts | 42° |
| 2026-05-08 15:29 | 27.38677 | -82.54521 | 30 ft | 12 kts | 315° |
| 2026-05-08 15:29 | 27.38757 | -82.54612 | 30 ft | 36 kts | 314° |
| 2026-05-08 15:29 | 27.39098 | -82.55003 | 29 ft | 101 kts | 314° |
| 2026-05-08 15:29 | 27.39718 | -82.55714 | 31 ft | 150 kts | 314° |
| 2026-05-08 15:30 | 27.40488 | -82.56591 | 428 ft | 158 kts | 313° |
| 2026-05-08 15:30 | 27.41250 | -82.57491 | 1046 ft | 162 kts | 313° |
| 2026-05-08 15:30 | 27.42068 | -82.58460 | 1440 ft | 180 kts | 320° |
| 2026-05-08 15:30 | 27.43203 | -82.59167 | 1795 ft | 202 kts | 346° |
| 2026-05-08 15:31 | 27.44634 | -82.58968 | 2104 ft | 222 kts | 29° |
| 2026-05-08 15:31 | 27.45686 | -82.57622 | 2432 ft | 245 kts | 69° |
| 2026-05-08 15:31 | 27.45769 | -82.55656 | 2919 ft | 263 kts | 108° |
| 2026-05-08 15:31 | 27.44772 | -82.53926 | 3717 ft | 269 kts | 137° |
| 2026-05-08 15:32 | 27.43279 | -82.52627 | 4565 ft | 273 kts | 147° |
| 2026-05-08 15:32 | 27.41672 | -82.51460 | 5409 ft | 277 kts | 148° |
| 2026-05-08 15:32 | 27.40059 | -82.50248 | 6229 ft | 281 kts | 146° |
| 2026-05-08 15:32 | 27.38470 | -82.48934 | 7002 ft | 285 kts | 143° |
| 2026-05-08 15:33 | 27.36917 | -82.47530 | 7765 ft | 288 kts | 141° |
| 2026-05-08 15:33 | 27.35387 | -82.46058 | 8523 ft | 291 kts | 140° |
| 2026-05-08 15:33 | 27.33857 | -82.44533 | 9277 ft | 295 kts | 140° |
| 2026-05-08 15:33 | 27.32329 | -82.42985 | 10006 ft | 298 kts | 140° |
| 2026-05-08 15:34 | 27.30769 | -82.41396 | 10426 ft | 312 kts | 140° |
| 2026-05-08 15:34 | 27.29100 | -82.39699 | 10585 ft | 334 kts | 140° |
| 2026-05-08 15:34 | 27.27344 | -82.37924 | 10995 ft | 343 kts | 140° |
| 2026-05-08 15:34 | 27.25553 | -82.36115 | 11554 ft | 349 kts | 140° |
| 2026-05-08 15:35 | 27.23740 | -82.34281 | 12126 ft | 353 kts | 140° |
| 2026-05-08 15:35 | 27.21901 | -82.32419 | 12678 ft | 358 kts | 140° |